This is the latest recevied weather packets stored in our database for station/object EA7AIS-10. If no packets are shown the sender has not sent any weather packets the latest 10 day(s).
| Time | Temp. | Humidity | Pressure | Rain* | Wind** | Luminosity | Snow |
|---|---|---|---|---|---|---|---|
| 1777500957 | 16.11° C | 81% | 1012.1 hPa | - | - | - | - |
| 1777500057 | 16.67° C | 80% | 1012 hPa | - | - | - | - |
| 1777499156 | 16.67° C | 80% | 1012 hPa | - | - | - | - |
| 1777498256 | 16.67° C | 78% | 1012.1 hPa | - | - | - | - |
| 1777497356 | 17.22° C | 79% | 1012 hPa | - | - | - | - |
| 1777496457 | 17.22° C | 78% | 1011.8 hPa | - | - | - | - |
| 1777495556 | 17.22° C | 79% | 1011.7 hPa | - | - | - | - |
| 1777494656 | 17.22° C | 79% | 1011.3 hPa | - | - | - | - |
| 1777493756 | 17.78° C | 78% | 1010.6 hPa | - | - | - | - |
| 1777492856 | 17.78° C | 78% | 1010.4 hPa | - | - | - | - |
| 1777491956 | 18.33° C | 77% | 1010.2 hPa | - | - | - | - |
| 1777491056 | 18.33° C | 76% | 1009.9 hPa | - | - | - | - |
| 1777490156 | 18.89° C | 73% | 1009.8 hPa | - | - | - | - |
| 1777489256 | 20° C | 68% | 1009.6 hPa | - | - | - | - |
| 1777488356 | 20.56° C | 65% | 1009.4 hPa | - | - | - | - |
| 1777487456 | 21.11° C | 65% | 1009.1 hPa | - | - | - | - |
| 1777486555 | 21.11° C | 63% | 1008.9 hPa | - | - | - | - |
| 1777485656 | 21.67° C | 62% | 1008.8 hPa | - | - | - | - |
| 1777484755 | 22.22° C | 62% | 1008.7 hPa | - | - | - | - |
| 1777483855 | 21.67° C | 63% | 1008.6 hPa | - | - | - | - |
| 1777482955 | 21.67° C | 63% | 1008.6 hPa | - | - | - | - |
| 1777482056 | 21.67° C | 63% | 1008.4 hPa | - | - | - | - |
| 1777481155 | 21.67° C | 63% | 1008.5 hPa | - | - | - | - |
| 1777480255 | 22.22° C | 63% | 1008.7 hPa | - | - | - | - |
| 1777479355 | 22.22° C | 62% | 1008.6 hPa | - | - | - | - |
* Rain since midnight (hover to see other rain measurements)
** Current wind speed in m/s (hover to see current wind gust speed)